28 de septiembre de 2022

Hora Código Tiempo Temp. Visibilidad Cielo nuboso Viento METAR/SPECI
22:00
V
13 °C 20 mi 24.000 ft Var Var 2 kt METAR CYEG 290400Z VRB02KT 20SM BKN240 13/06 A2992 RMK CI6 SLP143 DENSITY ALT 2700FT
21:00
V
19 °C 20 mi 24.000 ft 080° 080° 8 kt METAR CYEG 290300Z 08008KT 20SM BKN240 19/07 A2992 RMK CI6 SLP142 DENSITY ALT 3400FT
20:00
V
17 °C 20 mi 25.000 ft 090° 090° 5 kt METAR CYEG 290200Z 09005KT 20SM BKN250 17/06 A2991 RMK CI6 SLP144 DENSITY ALT 3200FT
19:00
V
21 °C 20 mi 25.000 ft 080° 080° 6 kt METAR CYEG 290100Z 08006KT 20SM BKN250 21/06 A2990 RMK CI7 SLP139 DENSITY ALT 3700FT
18:00
V
25 °C 20 mi - 070° 070° 5 kt METAR CYEG 290000Z 07005KT 20SM SCT250 25/07 A2990 RMK CI4 SLP132 DENSITY ALT 4100FT
17:00
V
27 °C 20 mi - 050° 050° 4 kt METAR CYEG 282300Z 05004KT 010V090 20SM SCT250 27/06 A2989 RMK CI3 SLP127 DENSITY ALT 4400FT
16:00
V
27 °C 20 mi 25.000 ft 010° 010° 5 kt METAR CYEG 282200Z 01005KT 340V070 20SM BKN250 27/06 A2989 RMK CI6 SLP126 DENSITY ALT 4400FT
15:00
V
25 °C 20 mi - 020° 020° 5 kt METAR CYEG 282100Z 02005KT 20SM SCT250 25/07 A2990 RMK CI4 SLP128 DENSITY ALT 4200FT
14:00
V
24 °C 20 mi - 300° 300° 3 kt METAR CYEG 282000Z 30003KT 250V030 20SM FEW250 24/08 A2991 RMK CI1 CI TR SLP133 DENSITY ALT 4100FT
13:00
V
23 °C 20 mi - 330° 330° 5 kt METAR CYEG 281900Z 33005KT 310V010 20SM FEW250 23/07 A2991 RMK CI1 SLP135 DENSITY ALT 3800FT
12:00
V
20 °C 20 mi 25.000 ft 310° 310° 4 kt METAR CYEG 281800Z 31004KT 260V340 20SM BKN250 20/07 A2991 RMK CI5 SLP138 DENSITY ALT 3600FT
11:00
V
18 °C 20 mi - 300° 300° 8 kt METAR CYEG 281700Z 30008KT 20SM FEW250 18/05 A2992 RMK CI1 CI TR SLP139 DENSITY ALT 3400FT
10:00
V
14 °C 20 mi - 240° 240° 3 kt METAR CYEG 281600Z 24003KT 230V300 20SM FEW250 14/06 A2991 RMK CI1 CI TR SLP141 DENSITY ALT 2800FT
09:00
V
8 °C 20 mi - 210° 210° 3 kt METAR CYEG 281500Z 21003KT 20SM FEW250 08/07 A2991 RMK CI1 CI TR SLP144
08:00
V
5 °C 20 mi - 160° 160° 4 kt METAR CYEG 281400Z 16004KT 20SM SKC 05/04 A2990 RMK SLP141
07:00
V
3 °C 20 mi - 210° 210° 5 kt METAR CYEG 281300Z 21005KT 20SM SKC 03/03 A2989 RMK SLP133
06:00
V
4 °C 20 mi - 210° 210° 5 kt METAR CYEG 281200Z 21005KT 20SM FEW250 04/03 A2989 RMK CI1 CI TR SLP129
05:00
V
6 °C 20 mi - 190° 190° 4 kt METAR CYEG 281100Z 19004KT 20SM SKC 06/05 A2989 RMK SLP127
04:00
V
7 °C 20 mi - Var Var 2 kt METAR CYEG 281000Z VRB02KT 20SM SKC 07/05 A2989 RMK SLP126
03:00
V
9 °C 20 mi - 170° 170° 4 kt METAR CYEG 280900Z 17004KT 20SM SKC 09/06 A2988 RMK SLP125
02:00
V
8 °C 20 mi - 160° 160° 4 kt METAR CYEG 280800Z 16004KT 20SM SKC 08/05 A2989 RMK SLP129
01:00
V
10 °C 20 mi - 160° 160° 4 kt METAR CYEG 280700Z 16004KT 20SM SKC 10/06 A2989 RMK SLP128 DENSITY ALT 2400FT
00:00
V
9 °C 20 mi - 180° 180° 4 kt METAR CYEG 280600Z 18004KT 20SM SKC 09/07 A2989 RMK SLP131

27 de septiembre de 2022

Hora Código Tiempo Temp. Visibilidad Cielo nuboso Viento METAR/SPECI
23:00
V
12 °C 20 mi - 190° 190° 7 kt METAR CYEG 280500Z 19007KT 20SM FEW250 12/07 A2989 RMK CI1 CI TR SLP130 DENSITY ALT 2700FT
22:00
V
12 °C 20 mi - 180° 180° 8 kt METAR CYEG 280400Z 18008KT 20SM FEW250 12/07 A2988 RMK CI1 SLP129 DENSITY ALT 2700FT
21:00
V
12 °C 20 mi - 170° 170° 6 kt METAR CYEG 280300Z 17006KT 20SM FEW250 12/06 A2988 RMK CI1 CI TR SLP129 DENSITY ALT 2700FT
20:00
V
15 °C 20 mi - 120° 120° 6 kt METAR CYEG 280200Z 12006KT 20SM FEW250 15/06 A2988 RMK CI2 SLP131 DENSITY ALT 3000FT
19:00
V
21 °C 20 mi - 130° 130° 2 kt METAR CYEG 280100Z 13002KT 20SM FEW250 21/08 A2987 RMK CI2 SLP124 DENSITY ALT 3700FT
18:00
V
25 °C 20 mi - Var 000° 0 kt METAR CYEG 280000Z 00000KT 20SM FEW250 25/07 A2988 RMK CI1 CI TR SLP121 DENSITY ALT 4100FT
17:00
V
25 °C 20 mi - 300° 300° 3 kt METAR CYEG 272300Z 30003KT 260V360 20SM FEW120 FEW250 25/08 A2989 RMK AC1CI1 AC TR CI TR SLP122 DENSITY ALT 4100FT
16:00
V
25 °C 20 mi - 250° 250° 4 kt METAR CYEG 272200Z 25004KT 140V270 20SM FEW120 25/08 A2989 RMK ACC1 ACC TR SLP123 DENSITY ALT 4100FT
15:00
V
23 °C 20 mi - 190° 190° 4 kt METAR CYEG 272100Z 19004KT 170V270 20SM FEW120 FEW250 23/08 A2990 RMK ACC1CI1 ACC TR CI TR SLP126 DENSITY ALT 4000FT
14:00
V
22 °C 20 mi - Var 000° 0 kt METAR CYEG 272000Z 00000KT 20SM FEW120 FEW250 22/07 A2992 RMK ACC1CI1 CI TR VIRGA SLP132 DENSITY ALT 3800FT
13:00
V
21 °C 20 mi - 200° 200° 3 kt METAR CYEG 271900Z 20003KT 20SM FEW120 FEW180 FEW250 21/07 A2992 RMK ACC1AC1CI1 AC TR CI TR SLP135 DENSITY ALT 3600FT
12:00
V
19 °C 20 mi - Var Var 2 kt METAR CYEG 271800Z VRB02KT 20SM FEW120 FEW250 19/07 A2992 RMK ACC1CI1 SLP138 DENSITY ALT 3400FT
11:00
V
17 °C 20 mi - Var Var 2 kt METAR CYEG 271700Z VRB02KT 20SM FEW120 FEW180 SCT250 17/07 A2993 RMK ACC2AC1CI2 AC TR SLP143 DENSITY ALT 3200FT
10:00
V
14 °C 20 mi - 180° 180° 8 kt METAR CYEG 271600Z 18008KT 20SM FEW100CB FEW180 SCT250 14/07 A2994 RMK CB1AC1CI2 CB VIRGA DIST S MOV W SLP148 DENSITY ALT 2800FT
09:00
V
13 °C 20 mi 25.000 ft 170° 170° 8 kt METAR CYEG 271500Z CCB 17008KT 20SM FEW100CB SCT180 BKN250 13/08 A2994 RMK CB1AC2CI3 CB SH DIST S MOV W OCNL LTGCG SLP150 DENSITY ALT 2700FT
08:00
V
9 °C 20 mi 25.000 ft 150° 150° 5 kt METAR CYEG 271400Z 15005KT 20SM FEW100 FEW180 BKN250 09/07 A2995 RMK ACC1AC1CI5 VIRGA SLP155
07:00
V
9 °C 20 mi 25.000 ft 140° 140° 5 kt METAR CYEG 271300Z 14005KT 20SM FEW100 SCT180 BKN250 09/07 A2995 RMK ACC1AC2CI4 SLP152
06:00
V
10 °C 20 mi 17.000 ft 130° 130° 8 kt METAR CYEG 271200Z 13008KT 20SM FEW140 BKN170 BKN250 10/07 A2997 RMK AC2AC3CI1 SLP151
05:00
V
12 °C 20 mi 17.000 ft 130° 130° 5 kt METAR CYEG 271100Z 13005KT 20SM SCT140 BKN170 12/08 A2998 RMK AC3AC3 SLP152 DENSITY ALT 2600FT
04:00
V
14 °C 20 mi 17.000 ft 140° 140° 9 kt METAR CYEG 271000Z 14009KT 20SM SCT140 BKN170 14/08 A2999 RMK AC3AC4 SLP156 DENSITY ALT 2800FT
03:00
V
15 °C 20 mi 14.000 ft 150° 150° 9 kt METAR CYEG 270900Z 15009KT 20SM BKN140 BKN180 15/08 A3001 RMK AC5AC2 SLP162 DENSITY ALT 2900FT
02:00
V
15 °C 20 mi 18.000 ft 130° 130° 12 kt METAR CYEG 270800Z 13012KT 20SM FEW150 BKN180 15/08 A3002 RMK AC1AC6 SLP166 DENSITY ALT 2900FT
01:00
V
16 °C 20 mi 17.000 ft 130° 130° 12 kt METAR CYEG 270700Z 13012KT 20SM BKN170 BKN220 16/09 A3003 RMK AC5CI2 SLP169 DENSITY ALT 2900FT
00:00
V
14 °C 20 mi 22.000 ft 130° 130° 11 kt METAR CYEG 270600Z 13011KT 20SM FEW160 BKN220 14/09 A3004 RMK AC1CI5 AC TR SLP177 DENSITY ALT 2800FT

26 de septiembre de 2022

Hora Código Tiempo Temp. Visibilidad Cielo nuboso Viento METAR/SPECI
23:00
V
14 °C 20 mi - 130° 130° 11 kt METAR CYEG 270500Z 13011KT 20SM FEW250 14/09 A3004 RMK CI1 SLP178 DENSITY ALT 2800FT
22:00
V
16 °C 20 mi - 110° 110° 10 kt METAR CYEG 270400Z 11010KT 20SM FEW250 16/09 A3005 RMK CI1 CI TR SLP183 DENSITY ALT 2900FT
21:00
V
14 °C 20 mi - 120° 120° 9 kt METAR CYEG 270300Z 12009KT 20SM FEW120 FEW250 14/08 A3005 RMK AC1CI2 AC TR SLP186 DENSITY ALT 2800FT
20:00
V
17 °C 20 mi - 120° 120° 9 kt METAR CYEG 270200Z 12009KT 20SM FEW120 SCT250 17/08 A3005 RMK AC1CI3 AC TR SLP188 DENSITY ALT 3000FT
19:00
V
20 °C 20 mi 25.000 ft 120° 120° 8 kt METAR CYEG 270100Z 12008KT 20SM FEW120 BKN250 20/08 A3006 RMK AC1CI7 AC TR CONTRAILS SLP189 DENSITY ALT 3400FT
18:00
V
24 °C 20 mi 25.000 ft 170° 170° 6 kt METAR CYEG 270000Z 17006KT 20SM FEW120 BKN250 24/09 A3007 RMK AC1CI7 AC TR SLP186 DENSITY ALT 3900FT
Datos más antiguos

Nosotros y terceros seguimos tu comportamiento en Internet en nuestro sitio web con cookies. Si continúas, asumimos que estás de acuerdo con nuestra política de cookies. Más información